sensor_id;sensor_type;location;lat;lon;timestamp;P1;durP1;ratioP1;P2;durP2;ratioP2
59922;SDS011;45778;51.142;3.732;2023-08-06T00:00:23;8.18;;;4.38;;
59922;SDS011;45778;51.142;3.732;2023-08-06T00:02:49;8.00;;;4.55;;
59922;SDS011;45778;51.142;3.732;2023-08-06T00:05:15;11.68;;;4.82;;
59922;SDS011;45778;51.142;3.732;2023-08-06T00:07:46;8.27;;;4.97;;
59922;SDS011;45778;51.142;3.732;2023-08-06T00:10:12;9.02;;;4.57;;
59922;SDS011;45778;51.142;3.732;2023-08-06T00:12:37;9.73;;;5.15;;
59922;SDS011;45778;51.142;3.732;2023-08-06T00:15:03;11.02;;;5.55;;
59922;SDS011;45778;51.142;3.732;2023-08-06T00:17:29;8.57;;;5.40;;
59922;SDS011;45778;51.142;3.732;2023-08-06T00:19:55;17.15;;;5.88;;
59922;SDS011;45778;51.142;3.732;2023-08-06T00:22:20;12.55;;;5.82;;
59922;SDS011;45778;51.142;3.732;2023-08-06T00:24:46;10.23;;;5.97;;
59922;SDS011;45778;51.142;3.732;2023-08-06T00:27:11;17.90;;;6.38;;
59922;SDS011;45778;51.142;3.732;2023-08-06T00:29:37;12.85;;;6.55;;
59922;SDS011;45778;51.142;3.732;2023-08-06T00:32:03;10.77;;;5.82;;
59922;SDS011;45778;51.142;3.732;2023-08-06T00:34:29;11.13;;;6.32;;
59922;SDS011;45778;51.142;3.732;2023-08-06T00:36:54;12.25;;;6.10;;
59922;SDS011;45778;51.142;3.732;2023-08-06T00:39:20;13.43;;;6.50;;
59922;SDS011;45778;51.142;3.732;2023-08-06T00:41:45;12.68;;;6.68;;
59922;SDS011;45778;51.142;3.732;2023-08-06T00:44:11;12.35;;;7.07;;
59922;SDS011;45778;51.142;3.732;2023-08-06T00:46:37;16.95;;;7.80;;
59922;SDS011;45778;51.142;3.732;2023-08-06T00:49:03;12.40;;;7.45;;
59922;SDS011;45778;51.142;3.732;2023-08-06T00:51:30;16.75;;;6.57;;
59922;SDS011;45778;51.142;3.732;2023-08-06T00:53:56;18.60;;;6.32;;
59922;SDS011;45778;51.142;3.732;2023-08-06T00:56:22;11.98;;;6.13;;
59922;SDS011;45778;51.142;3.732;2023-08-06T00:58:48;13.45;;;7.68;;
59922;SDS011;45778;51.142;3.732;2023-08-06T01:01:14;17.48;;;8.38;;
59922;SDS011;45778;51.142;3.732;2023-08-06T01:03:39;18.05;;;8.40;;
59922;SDS011;45778;51.142;3.732;2023-08-06T01:06:05;18.48;;;9.50;;
59922;SDS011;45778;51.142;3.732;2023-08-06T01:14:28;12.57;;;6.97;;
59922;SDS011;45778;51.142;3.732;2023-08-06T01:16:55;12.10;;;6.68;;
59922;SDS011;45778;51.142;3.732;2023-08-06T01:19:23;14.90;;;6.22;;
59922;SDS011;45778;51.142;3.732;2023-08-06T01:21:49;14.00;;;7.18;;
59922;SDS011;45778;51.142;3.732;2023-08-06T01:24:14;12.43;;;7.18;;
59922;SDS011;45778;51.142;3.732;2023-08-06T01:29:41;12.32;;;7.40;;
59922;SDS011;45778;51.142;3.732;2023-08-06T01:32:12;12.77;;;7.00;;
59922;SDS011;45778;51.142;3.732;2023-08-06T01:34:41;13.07;;;7.60;;
59922;SDS011;45778;51.142;3.732;2023-08-06T01:37:09;14.43;;;7.82;;
59922;SDS011;45778;51.142;3.732;2023-08-06T01:39:36;16.77;;;8.20;;
59922;SDS011;45778;51.142;3.732;2023-08-06T01:42:02;13.88;;;7.70;;
59922;SDS011;45778;51.142;3.732;2023-08-06T01:44:27;11.55;;;6.40;;
59922;SDS011;45778;51.142;3.732;2023-08-06T01:46:53;11.13;;;6.43;;
59922;SDS011;45778;51.142;3.732;2023-08-06T01:49:19;12.35;;;6.53;;
59922;SDS011;45778;51.142;3.732;2023-08-06T01:51:45;8.30;;;5.05;;
59922;SDS011;45778;51.142;3.732;2023-08-06T01:54:10;9.35;;;5.22;;
59922;SDS011;45778;51.142;3.732;2023-08-06T01:56:36;8.15;;;4.55;;
59922;SDS011;45778;51.142;3.732;2023-08-06T01:59:02;8.35;;;5.05;;
59922;SDS011;45778;51.142;3.732;2023-08-06T02:01:27;7.00;;;4.63;;
59922;SDS011;45778;51.142;3.732;2023-08-06T02:03:53;9.27;;;5.45;;
59922;SDS011;45778;51.142;3.732;2023-08-06T02:06:19;6.35;;;4.00;;
59922;SDS011;45778;51.142;3.732;2023-08-06T02:08:45;6.93;;;3.50;;
59922;SDS011;45778;51.142;3.732;2023-08-06T02:11:11;9.45;;;3.00;;
59922;SDS011;45778;51.142;3.732;2023-08-06T02:13:36;4.45;;;2.38;;
59922;SDS011;45778;51.142;3.732;2023-08-06T02:16:02;4.45;;;1.65;;
59922;SDS011;45778;51.142;3.732;2023-08-06T02:18:28;6.32;;;1.85;;
59922;SDS011;45778;51.142;3.732;2023-08-06T02:20:57;3.95;;;0.93;;
59922;SDS011;45778;51.142;3.732;2023-08-06T02:23:23;4.78;;;1.17;;
59922;SDS011;45778;51.142;3.732;2023-08-06T02:25:56;11.43;;;2.70;;
59922;SDS011;45778;51.142;3.732;2023-08-06T02:28:25;9.25;;;1.33;;
59922;SDS011;45778;51.142;3.732;2023-08-06T02:30:51;3.85;;;1.45;;
59922;SDS011;45778;51.142;3.732;2023-08-06T02:33:17;16.95;;;2.20;;
59922;SDS011;45778;51.142;3.732;2023-08-06T02:35:43;6.75;;;2.55;;
59922;SDS011;45778;51.142;3.732;2023-08-06T02:38:08;6.72;;;2.47;;
59922;SDS011;45778;51.142;3.732;2023-08-06T02:40:34;8.68;;;2.75;;
59922;SDS011;45778;51.142;3.732;2023-08-06T02:42:59;8.10;;;3.38;;
59922;SDS011;45778;51.142;3.732;2023-08-06T02:45:25;7.15;;;3.20;;
59922;SDS011;45778;51.142;3.732;2023-08-06T02:47:51;9.35;;;2.50;;
59922;SDS011;45778;51.142;3.732;2023-08-06T02:50:16;6.95;;;2.40;;
59922;SDS011;45778;51.142;3.732;2023-08-06T02:52:42;10.88;;;2.63;;
59922;SDS011;45778;51.142;3.732;2023-08-06T02:55:08;9.38;;;3.40;;
59922;SDS011;45778;51.142;3.732;2023-08-06T02:57:33;5.53;;;2.38;;
59922;SDS011;45778;51.142;3.732;2023-08-06T02:59:59;8.50;;;2.88;;
59922;SDS011;45778;51.142;3.732;2023-08-06T03:02:25;9.30;;;3.47;;
59922;SDS011;45778;51.142;3.732;2023-08-06T03:04:50;9.27;;;3.50;;
59922;SDS011;45778;51.142;3.732;2023-08-06T03:07:16;14.00;;;4.30;;
59922;SDS011;45778;51.142;3.732;2023-08-06T03:09:41;7.38;;;4.10;;
59922;SDS011;45778;51.142;3.732;2023-08-06T03:12:07;10.93;;;3.83;;
59922;SDS011;45778;51.142;3.732;2023-08-06T03:14:33;10.48;;;4.10;;
59922;SDS011;45778;51.142;3.732;2023-08-06T03:16:59;6.97;;;3.70;;
59922;SDS011;45778;51.142;3.732;2023-08-06T03:19:24;10.05;;;3.75;;
59922;SDS011;45778;51.142;3.732;2023-08-06T03:21:50;10.35;;;3.95;;
59922;SDS011;45778;51.142;3.732;2023-08-06T03:24:15;14.90;;;4.68;;
59922;SDS011;45778;51.142;3.732;2023-08-06T03:26:41;12.23;;;5.38;;
59922;SDS011;45778;51.142;3.732;2023-08-06T03:29:07;13.75;;;5.28;;
59922;SDS011;45778;51.142;3.732;2023-08-06T03:31:32;12.55;;;5.28;;
59922;SDS011;45778;51.142;3.732;2023-08-06T03:33:58;8.23;;;4.68;;
59922;SDS011;45778;51.142;3.732;2023-08-06T03:36:24;14.68;;;5.10;;
59922;SDS011;45778;51.142;3.732;2023-08-06T03:38:49;16.73;;;5.18;;
59922;SDS011;45778;51.142;3.732;2023-08-06T03:41:15;9.73;;;4.90;;
59922;SDS011;45778;51.142;3.732;2023-08-06T03:43:41;12.18;;;5.25;;
59922;SDS011;45778;51.142;3.732;2023-08-06T03:46:06;16.77;;;5.35;;
59922;SDS011;45778;51.142;3.732;2023-08-06T03:48:32;13.07;;;5.00;;
59922;SDS011;45778;51.142;3.732;2023-08-06T03:50:57;9.45;;;4.78;;
59922;SDS011;45778;51.142;3.732;2023-08-06T03:53:25;20.67;;;6.63;;
59922;SDS011;45778;51.142;3.732;2023-08-06T03:55:51;20.25;;;5.85;;
59922;SDS011;45778;51.142;3.732;2023-08-06T03:58:17;12.13;;;5.57;;
59922;SDS011;45778;51.142;3.732;2023-08-06T04:00:42;13.93;;;5.15;;
59922;SDS011;45778;51.142;3.732;2023-08-06T04:03:08;18.25;;;5.35;;
59922;SDS011;45778;51.142;3.732;2023-08-06T04:05:34;11.13;;;4.60;;
59922;SDS011;45778;51.142;3.732;2023-08-06T04:08:00;13.63;;;4.25;;
59922;SDS011;45778;51.142;3.732;2023-08-06T04:10:25;10.10;;;3.50;;
59922;SDS011;45778;51.142;3.732;2023-08-06T04:12:51;9.18;;;3.50;;
59922;SDS011;45778;51.142;3.732;2023-08-06T04:15:16;15.07;;;3.90;;
59922;SDS011;45778;51.142;3.732;2023-08-06T04:17:42;13.18;;;2.90;;
59922;SDS011;45778;51.142;3.732;2023-08-06T04:20:08;11.18;;;3.58;;
59922;SDS011;45778;51.142;3.732;2023-08-06T04:22:34;10.45;;;3.13;;
59922;SDS011;45778;51.142;3.732;2023-08-06T04:25:00;13.18;;;3.17;;
59922;SDS011;45778;51.142;3.732;2023-08-06T04:27:25;10.18;;;2.58;;
59922;SDS011;45778;51.142;3.732;2023-08-06T04:29:51;9.32;;;2.65;;
59922;SDS011;45778;51.142;3.732;2023-08-06T04:32:17;10.60;;;2.72;;
59922;SDS011;45778;51.142;3.732;2023-08-06T04:34:44;6.90;;;2.20;;
59922;SDS011;45778;51.142;3.732;2023-08-06T04:37:10;7.30;;;2.30;;
59922;SDS011;45778;51.142;3.732;2023-08-06T04:39:35;7.22;;;3.00;;
59922;SDS011;45778;51.142;3.732;2023-08-06T04:42:01;10.30;;;2.60;;
59922;SDS011;45778;51.142;3.732;2023-08-06T04:44:27;6.85;;;3.25;;
59922;SDS011;45778;51.142;3.732;2023-08-06T04:46:53;12.80;;;2.78;;
59922;SDS011;45778;51.142;3.732;2023-08-06T04:49:21;9.88;;;2.97;;
59922;SDS011;45778;51.142;3.732;2023-08-06T04:51:47;13.40;;;2.63;;
59922;SDS011;45778;51.142;3.732;2023-08-06T04:54:13;7.65;;;2.35;;
59922;SDS011;45778;51.142;3.732;2023-08-06T04:56:38;8.98;;;2.90;;
59922;SDS011;45778;51.142;3.732;2023-08-06T04:59:04;8.88;;;2.70;;
59922;SDS011;45778;51.142;3.732;2023-08-06T05:01:31;7.05;;;2.95;;
59922;SDS011;45778;51.142;3.732;2023-08-06T05:03:56;7.15;;;2.70;;
59922;SDS011;45778;51.142;3.732;2023-08-06T05:06:22;8.07;;;2.65;;
59922;SDS011;45778;51.142;3.732;2023-08-06T05:08:47;7.97;;;3.05;;
59922;SDS011;45778;51.142;3.732;2023-08-06T05:11:13;9.75;;;3.22;;
59922;SDS011;45778;51.142;3.732;2023-08-06T05:13:39;9.00;;;3.13;;
59922;SDS011;45778;51.142;3.732;2023-08-06T05:16:04;8.45;;;3.67;;
59922;SDS011;45778;51.142;3.732;2023-08-06T05:18:30;8.65;;;2.60;;
59922;SDS011;45778;51.142;3.732;2023-08-06T05:20:56;11.23;;;3.47;;
59922;SDS011;45778;51.142;3.732;2023-08-06T05:23:22;6.75;;;3.10;;
59922;SDS011;45778;51.142;3.732;2023-08-06T05:25:47;10.57;;;3.92;;
59922;SDS011;45778;51.142;3.732;2023-08-06T05:28:13;6.32;;;3.28;;
59922;SDS011;45778;51.142;3.732;2023-08-06T05:30:39;9.02;;;3.63;;
59922;SDS011;45778;51.142;3.732;2023-08-06T05:33:07;10.23;;;3.40;;
59922;SDS011;45778;51.142;3.732;2023-08-06T05:35:33;6.88;;;2.95;;
59922;SDS011;45778;51.142;3.732;2023-08-06T05:37:58;9.07;;;4.22;;
59922;SDS011;45778;51.142;3.732;2023-08-06T05:40:24;6.95;;;2.35;;
59922;SDS011;45778;51.142;3.732;2023-08-06T05:42:51;5.10;;;1.88;;
59922;SDS011;45778;51.142;3.732;2023-08-06T05:45:18;5.00;;;1.60;;
59922;SDS011;45778;51.142;3.732;2023-08-06T05:47:44;5.28;;;1.55;;
59922;SDS011;45778;51.142;3.732;2023-08-06T05:50:09;5.10;;;1.42;;
59922;SDS011;45778;51.142;3.732;2023-08-06T05:52:35;4.43;;;1.40;;
59922;SDS011;45778;51.142;3.732;2023-08-06T05:55:01;4.35;;;1.00;;
59922;SDS011;45778;51.142;3.732;2023-08-06T05:57:27;3.40;;;0.80;;
59922;SDS011;45778;51.142;3.732;2023-08-06T05:59:52;11.65;;;1.55;;
59922;SDS011;45778;51.142;3.732;2023-08-06T06:02:18;8.10;;;1.02;;
59922;SDS011;45778;51.142;3.732;2023-08-06T06:04:44;11.38;;;1.30;;
59922;SDS011;45778;51.142;3.732;2023-08-06T06:07:10;7.35;;;0.93;;
59922;SDS011;45778;51.142;3.732;2023-08-06T06:09:35;11.25;;;2.00;;
59922;SDS011;45778;51.142;3.732;2023-08-06T06:12:01;6.47;;;1.35;;
59922;SDS011;45778;51.142;3.732;2023-08-06T06:14:27;2.47;;;1.00;;
59922;SDS011;45778;51.142;3.732;2023-08-06T06:16:52;8.75;;;1.30;;
59922;SDS011;45778;51.142;3.732;2023-08-06T06:19:18;0.00;;;0.00;;
59922;SDS011;45778;51.142;3.732;2023-08-06T06:21:44;0.00;;;0.00;;
59922;SDS011;45778;51.142;3.732;2023-08-06T06:24:09;1.02;;;0.77;;
59922;SDS011;45778;51.142;3.732;2023-08-06T06:26:35;1.17;;;1.08;;
59922;SDS011;45778;51.142;3.732;2023-08-06T06:29:01;0.00;;;0.00;;
59922;SDS011;45778;51.142;3.732;2023-08-06T06:31:27;0.20;;;0.20;;
59922;SDS011;45778;51.142;3.732;2023-08-06T06:33:53;0.00;;;0.00;;
59922;SDS011;45778;51.142;3.732;2023-08-06T06:36:19;0.00;;;0.00;;
59922;SDS011;45778;51.142;3.732;2023-08-06T06:38:45;0.00;;;0.00;;
59922;SDS011;45778;51.142;3.732;2023-08-06T06:41:11;0.00;;;0.00;;
59922;SDS011;45778;51.142;3.732;2023-08-06T06:43:36;0.60;;;0.60;;
59922;SDS011;45778;51.142;3.732;2023-08-06T06:46:05;2.53;;;1.65;;
59922;SDS011;45778;51.142;3.732;2023-08-06T06:48:32;0.28;;;0.28;;
59922;SDS011;45778;51.142;3.732;2023-08-06T06:50:58;0.00;;;0.00;;
59922;SDS011;45778;51.142;3.732;2023-08-06T06:53:24;2.30;;;0.90;;
59922;SDS011;45778;51.142;3.732;2023-08-06T06:55:54;0.30;;;0.30;;
59922;SDS011;45778;51.142;3.732;2023-08-06T06:58:20;0.10;;;0.10;;
59922;SDS011;45778;51.142;3.732;2023-08-06T07:00:46;0.60;;;0.60;;
59922;SDS011;45778;51.142;3.732;2023-08-06T07:03:13;0.00;;;0.00;;
59922;SDS011;45778;51.142;3.732;2023-08-06T07:05:39;0.00;;;0.00;;
59922;SDS011;45778;51.142;3.732;2023-08-06T07:08:05;0.05;;;0.05;;
59922;SDS011;45778;51.142;3.732;2023-08-06T07:10:31;0.00;;;0.00;;
59922;SDS011;45778;51.142;3.732;2023-08-06T07:12:56;0.10;;;0.10;;
59922;SDS011;45778;51.142;3.732;2023-08-06T07:15:22;0.25;;;0.25;;
59922;SDS011;45778;51.142;3.732;2023-08-06T07:17:48;0.15;;;0.15;;
59922;SDS011;45778;51.142;3.732;2023-08-06T07:20:13;13.32;;;5.63;;
59922;SDS011;45778;51.142;3.732;2023-08-06T07:22:39;13.23;;;6.18;;
59922;SDS011;45778;51.142;3.732;2023-08-06T07:25:05;10.68;;;5.50;;
59922;SDS011;45778;51.142;3.732;2023-08-06T07:27:31;10.10;;;3.90;;
59922;SDS011;45778;51.142;3.732;2023-08-06T07:29:57;15.35;;;9.52;;
59922;SDS011;45778;51.142;3.732;2023-08-06T07:32:23;9.68;;;6.15;;
59922;SDS011;45778;51.142;3.732;2023-08-06T07:34:49;0.85;;;0.13;;
59922;SDS011;45778;51.142;3.732;2023-08-06T07:37:14;9.98;;;6.38;;
59922;SDS011;45778;51.142;3.732;2023-08-06T07:39:40;7.15;;;2.38;;
59922;SDS011;45778;51.142;3.732;2023-08-06T07:42:07;7.85;;;5.47;;
59922;SDS011;45778;51.142;3.732;2023-08-06T07:44:33;8.88;;;3.05;;
59922;SDS011;45778;51.142;3.732;2023-08-06T07:46:59;10.63;;;5.20;;
59922;SDS011;45778;51.142;3.732;2023-08-06T07:49:24;7.78;;;3.53;;
59922;SDS011;45778;51.142;3.732;2023-08-06T07:51:50;9.95;;;1.60;;
59922;SDS011;45778;51.142;3.732;2023-08-06T07:54:17;9.25;;;2.90;;
59922;SDS011;45778;51.142;3.732;2023-08-06T07:56:43;10.23;;;1.65;;
59922;SDS011;45778;51.142;3.732;2023-08-06T07:59:09;8.38;;;1.67;;
59922;SDS011;45778;51.142;3.732;2023-08-06T08:01:34;6.07;;;1.40;;
59922;SDS011;45778;51.142;3.732;2023-08-06T08:04:00;7.00;;;1.75;;
59922;SDS011;45778;51.142;3.732;2023-08-06T08:06:26;7.70;;;1.42;;
59922;SDS011;45778;51.142;3.732;2023-08-06T08:08:52;7.75;;;1.35;;
59922;SDS011;45778;51.142;3.732;2023-08-06T08:11:17;7.15;;;1.00;;
59922;SDS011;45778;51.142;3.732;2023-08-06T08:13:43;6.97;;;1.40;;
59922;SDS011;45778;51.142;3.732;2023-08-06T08:16:09;8.13;;;1.02;;
59922;SDS011;45778;51.142;3.732;2023-08-06T08:18:35;6.80;;;1.45;;
59922;SDS011;45778;51.142;3.732;2023-08-06T08:21:01;5.43;;;1.00;;
59922;SDS011;45778;51.142;3.732;2023-08-06T08:23:26;10.10;;;1.80;;
59922;SDS011;45778;51.142;3.732;2023-08-06T08:25:52;7.45;;;1.48;;
59922;SDS011;45778;51.142;3.732;2023-08-06T08:28:18;5.40;;;1.35;;
59922;SDS011;45778;51.142;3.732;2023-08-06T08:30:44;7.68;;;1.63;;
59922;SDS011;45778;51.142;3.732;2023-08-06T08:33:09;9.75;;;1.20;;
59922;SDS011;45778;51.142;3.732;2023-08-06T08:35:36;8.55;;;1.70;;
59922;SDS011;45778;51.142;3.732;2023-08-06T08:38:02;5.60;;;0.90;;
59922;SDS011;45778;51.142;3.732;2023-08-06T08:40:30;8.32;;;1.50;;
59922;SDS011;45778;51.142;3.732;2023-08-06T08:42:58;10.02;;;1.80;;
59922;SDS011;45778;51.142;3.732;2023-08-06T08:45:26;9.57;;;2.10;;
59922;SDS011;45778;51.142;3.732;2023-08-06T08:47:53;11.93;;;1.73;;
59922;SDS011;45778;51.142;3.732;2023-08-06T08:50:19;8.65;;;1.42;;
59922;SDS011;45778;51.142;3.732;2023-08-06T08:52:46;7.60;;;1.73;;
59922;SDS011;45778;51.142;3.732;2023-08-06T08:55:14;9.93;;;2.10;;
59922;SDS011;45778;51.142;3.732;2023-08-06T08:57:40;12.52;;;2.05;;
59922;SDS011;45778;51.142;3.732;2023-08-06T09:00:06;6.50;;;1.45;;
59922;SDS011;45778;51.142;3.732;2023-08-06T09:02:32;9.93;;;1.42;;
59922;SDS011;45778;51.142;3.732;2023-08-06T09:05:02;8.98;;;1.58;;
59922;SDS011;45778;51.142;3.732;2023-08-06T09:07:43;8.88;;;1.50;;
59922;SDS011;45778;51.142;3.732;2023-08-06T09:10:13;6.97;;;1.33;;
59922;SDS011;45778;51.142;3.732;2023-08-06T09:12:42;9.65;;;1.30;;
59922;SDS011;45778;51.142;3.732;2023-08-06T09:15:09;9.05;;;1.65;;
59922;SDS011;45778;51.142;3.732;2023-08-06T09:17:36;10.98;;;2.22;;
59922;SDS011;45778;51.142;3.732;2023-08-06T09:20:09;8.32;;;2.42;;
59922;SDS011;45778;51.142;3.732;2023-08-06T09:22:39;5.75;;;1.73;;
59922;SDS011;45778;51.142;3.732;2023-08-06T09:25:05;9.40;;;1.52;;
59922;SDS011;45778;51.142;3.732;2023-08-06T09:27:35;5.22;;;1.83;;
59922;SDS011;45778;51.142;3.732;2023-08-06T09:30:02;7.78;;;1.25;;
59922;SDS011;45778;51.142;3.732;2023-08-06T09:32:43;9.63;;;1.20;;
59922;SDS011;45778;51.142;3.732;2023-08-06T09:35:19;13.63;;;2.17;;
59922;SDS011;45778;51.142;3.732;2023-08-06T09:37:45;5.88;;;1.30;;
59922;SDS011;45778;51.142;3.732;2023-08-06T09:40:27;14.15;;;2.50;;
59922;SDS011;45778;51.142;3.732;2023-08-06T09:42:54;6.43;;;1.05;;
59922;SDS011;45778;51.142;3.732;2023-08-06T09:45:20;9.98;;;1.67;;
59922;SDS011;45778;51.142;3.732;2023-08-06T09:47:50;8.82;;;1.88;;
59922;SDS011;45778;51.142;3.732;2023-08-06T09:50:20;8.05;;;1.63;;
59922;SDS011;45778;51.142;3.732;2023-08-06T09:52:46;6.43;;;1.40;;
59922;SDS011;45778;51.142;3.732;2023-08-06T09:55:13;11.23;;;1.88;;
59922;SDS011;45778;51.142;3.732;2023-08-06T09:57:40;13.25;;;3.45;;
59922;SDS011;45778;51.142;3.732;2023-08-06T10:00:07;11.90;;;2.65;;
59922;SDS011;45778;51.142;3.732;2023-08-06T10:02:40;11.15;;;1.70;;
59922;SDS011;45778;51.142;3.732;2023-08-06T10:05:07;11.30;;;3.40;;
59922;SDS011;45778;51.142;3.732;2023-08-06T10:07:33;11.27;;;2.83;;
59922;SDS011;45778;51.142;3.732;2023-08-06T10:10:00;8.20;;;2.33;;
59922;SDS011;45778;51.142;3.732;2023-08-06T10:12:27;10.30;;;3.10;;
59922;SDS011;45778;51.142;3.732;2023-08-06T10:14:55;12.10;;;3.60;;
59922;SDS011;45778;51.142;3.732;2023-08-06T10:17:24;7.75;;;2.65;;
59922;SDS011;45778;51.142;3.732;2023-08-06T10:19:50;6.05;;;2.05;;
59922;SDS011;45778;51.142;3.732;2023-08-06T10:22:19;8.23;;;1.80;;
59922;SDS011;45778;51.142;3.732;2023-08-06T10:24:47;6.57;;;1.85;;
59922;SDS011;45778;51.142;3.732;2023-08-06T10:27:20;6.25;;;1.30;;
59922;SDS011;45778;51.142;3.732;2023-08-06T10:30:21;5.13;;;1.48;;
59922;SDS011;45778;51.142;3.732;2023-08-06T10:32:52;7.05;;;1.92;;
59922;SDS011;45778;51.142;3.732;2023-08-06T10:37:58;10.50;;;1.80;;
59922;SDS011;45778;51.142;3.732;2023-08-06T10:40:27;7.15;;;1.77;;
59922;SDS011;45778;51.142;3.732;2023-08-06T10:42:54;10.68;;;2.33;;
59922;SDS011;45778;51.142;3.732;2023-08-06T10:45:20;9.82;;;3.03;;
59922;SDS011;45778;51.142;3.732;2023-08-06T10:47:49;7.30;;;1.98;;
59922;SDS011;45778;51.142;3.732;2023-08-06T10:50:15;8.57;;;1.67;;
59922;SDS011;45778;51.142;3.732;2023-08-06T10:52:45;14.98;;;2.63;;
59922;SDS011;45778;51.142;3.732;2023-08-06T10:55:22;10.77;;;2.65;;
59922;SDS011;45778;51.142;3.732;2023-08-06T10:57:49;9.55;;;2.17;;
59922;SDS011;45778;51.142;3.732;2023-08-06T11:00:15;8.00;;;1.98;;
59922;SDS011;45778;51.142;3.732;2023-08-06T11:02:41;8.32;;;1.42;;
59922;SDS011;45778;51.142;3.732;2023-08-06T11:05:07;8.25;;;1.58;;
59922;SDS011;45778;51.142;3.732;2023-08-06T11:07:34;9.10;;;3.30;;
59922;SDS011;45778;51.142;3.732;2023-08-06T11:10:04;3.38;;;1.05;;
59922;SDS011;45778;51.142;3.732;2023-08-06T11:12:32;5.75;;;0.98;;
59922;SDS011;45778;51.142;3.732;2023-08-06T11:14:58;9.00;;;1.17;;
59922;SDS011;45778;51.142;3.732;2023-08-06T11:17:24;6.15;;;1.40;;
59922;SDS011;45778;51.142;3.732;2023-08-06T11:19:50;5.30;;;1.40;;
59922;SDS011;45778;51.142;3.732;2023-08-06T11:22:17;6.88;;;2.17;;
59922;SDS011;45778;51.142;3.732;2023-08-06T11:24:43;11.55;;;1.65;;
59922;SDS011;45778;51.142;3.732;2023-08-06T11:27:12;8.48;;;1.58;;
59922;SDS011;45778;51.142;3.732;2023-08-06T11:29:39;5.88;;;1.65;;
59922;SDS011;45778;51.142;3.732;2023-08-06T11:32:05;7.55;;;1.73;;
59922;SDS011;45778;51.142;3.732;2023-08-06T11:34:31;7.00;;;1.30;;
59922;SDS011;45778;51.142;3.732;2023-08-06T11:36:57;8.13;;;1.70;;
59922;SDS011;45778;51.142;3.732;2023-08-06T11:39:23;7.43;;;1.70;;
59922;SDS011;45778;51.142;3.732;2023-08-06T11:41:49;8.18;;;1.10;;
59922;SDS011;45778;51.142;3.732;2023-08-06T11:44:15;7.13;;;1.77;;
59922;SDS011;45778;51.142;3.732;2023-08-06T11:46:53;5.57;;;1.30;;
59922;SDS011;45778;51.142;3.732;2023-08-06T11:49:21;4.65;;;1.20;;
59922;SDS011;45778;51.142;3.732;2023-08-06T11:52:07;4.68;;;0.80;;
59922;SDS011;45778;51.142;3.732;2023-08-06T11:54:38;7.57;;;1.33;;
59922;SDS011;45778;51.142;3.732;2023-08-06T11:57:07;5.68;;;1.05;;
59922;SDS011;45778;51.142;3.732;2023-08-06T11:59:33;6.32;;;1.40;;
59922;SDS011;45778;51.142;3.732;2023-08-06T12:02:07;8.07;;;0.90;;
59922;SDS011;45778;51.142;3.732;2023-08-06T12:04:56;6.93;;;0.90;;
59922;SDS011;45778;51.142;3.732;2023-08-06T12:07:29;6.70;;;1.10;;
59922;SDS011;45778;51.142;3.732;2023-08-06T12:09:56;6.78;;;1.05;;
59922;SDS011;45778;51.142;3.732;2023-08-06T12:12:23;8.25;;;1.65;;
59922;SDS011;45778;51.142;3.732;2023-08-06T12:14:48;6.68;;;1.05;;
59922;SDS011;45778;51.142;3.732;2023-08-06T12:17:14;7.07;;;0.98;;
59922;SDS011;45778;51.142;3.732;2023-08-06T12:19:40;4.03;;;1.10;;
59922;SDS011;45778;51.142;3.732;2023-08-06T12:22:05;11.05;;;1.60;;
59922;SDS011;45778;51.142;3.732;2023-08-06T12:24:31;7.57;;;2.53;;
59922;SDS011;45778;51.142;3.732;2023-08-06T12:26:57;9.50;;;3.70;;
59922;SDS011;45778;51.142;3.732;2023-08-06T12:29:25;8.10;;;2.45;;
59922;SDS011;45778;51.142;3.732;2023-08-06T12:31:51;8.27;;;3.72;;
59922;SDS011;45778;51.142;3.732;2023-08-06T12:34:17;8.77;;;3.20;;
59922;SDS011;45778;51.142;3.732;2023-08-06T12:36:42;13.35;;;6.13;;
59922;SDS011;45778;51.142;3.732;2023-08-06T12:39:08;8.60;;;3.45;;
59922;SDS011;45778;51.142;3.732;2023-08-06T12:41:34;8.20;;;3.53;;
59922;SDS011;45778;51.142;3.732;2023-08-06T12:44:00;8.85;;;2.58;;
59922;SDS011;45778;51.142;3.732;2023-08-06T12:46:25;9.00;;;2.40;;
59922;SDS011;45778;51.142;3.732;2023-08-06T12:48:51;6.43;;;1.70;;
59922;SDS011;45778;51.142;3.732;2023-08-06T12:51:17;8.40;;;2.65;;
59922;SDS011;45778;51.142;3.732;2023-08-06T12:53:42;13.43;;;1.77;;
59922;SDS011;45778;51.142;3.732;2023-08-06T12:56:08;4.85;;;0.90;;
59922;SDS011;45778;51.142;3.732;2023-08-06T12:58:34;0.00;;;0.00;;
59922;SDS011;45778;51.142;3.732;2023-08-06T13:00:59;0.17;;;0.10;;
59922;SDS011;45778;51.142;3.732;2023-08-06T13:03:25;0.00;;;0.00;;
59922;SDS011;45778;51.142;3.732;2023-08-06T13:05:51;0.30;;;0.28;;
59922;SDS011;45778;51.142;3.732;2023-08-06T13:08:17;0.00;;;0.00;;
59922;SDS011;45778;51.142;3.732;2023-08-06T13:10:42;1.13;;;0.10;;
59922;SDS011;45778;51.142;3.732;2023-08-06T13:13:08;28.92;;;1.73;;
59922;SDS011;45778;51.142;3.732;2023-08-06T13:15:35;0.55;;;0.43;;
59922;SDS011;45778;51.142;3.732;2023-08-06T13:18:01;0.00;;;0.00;;
59922;SDS011;45778;51.142;3.732;2023-08-06T13:20:27;0.13;;;0.13;;
59922;SDS011;45778;51.142;3.732;2023-08-06T13:22:55;0.43;;;0.43;;
59922;SDS011;45778;51.142;3.732;2023-08-06T13:25:23;0.32;;;0.32;;
59922;SDS011;45778;51.142;3.732;2023-08-06T13:27:48;0.00;;;0.00;;
59922;SDS011;45778;51.142;3.732;2023-08-06T13:30:15;3.72;;;0.52;;
59922;SDS011;45778;51.142;3.732;2023-08-06T13:32:42;0.00;;;0.00;;
59922;SDS011;45778;51.142;3.732;2023-08-06T13:35:09;0.00;;;0.00;;
59922;SDS011;45778;51.142;3.732;2023-08-06T13:37:35;0.15;;;0.15;;
59922;SDS011;45778;51.142;3.732;2023-08-06T13:40:00;11.65;;;1.05;;
59922;SDS011;45778;51.142;3.732;2023-08-06T13:42:29;0.40;;;0.40;;
59922;SDS011;45778;51.142;3.732;2023-08-06T13:44:55;0.00;;;0.00;;
59922;SDS011;45778;51.142;3.732;2023-08-06T13:47:27;1.23;;;1.13;;
59922;SDS011;45778;51.142;3.732;2023-08-06T13:49:53;9.57;;;1.00;;
59922;SDS011;45778;51.142;3.732;2023-08-06T13:52:18;0.00;;;0.00;;
59922;SDS011;45778;51.142;3.732;2023-08-06T13:54:44;0.00;;;0.00;;
59922;SDS011;45778;51.142;3.732;2023-08-06T13:57:10;0.00;;;0.00;;
59922;SDS011;45778;51.142;3.732;2023-08-06T13:59:35;0.20;;;0.15;;
59922;SDS011;45778;51.142;3.732;2023-08-06T14:02:03;0.00;;;0.00;;
59922;SDS011;45778;51.142;3.732;2023-08-06T14:04:28;0.03;;;0.03;;
59922;SDS011;45778;51.142;3.732;2023-08-06T14:06:54;0.00;;;0.00;;
59922;SDS011;45778;51.142;3.732;2023-08-06T14:09:20;0.28;;;0.28;;
59922;SDS011;45778;51.142;3.732;2023-08-06T14:11:46;0.00;;;0.00;;
59922;SDS011;45778;51.142;3.732;2023-08-06T14:14:11;0.00;;;0.00;;
59922;SDS011;45778;51.142;3.732;2023-08-06T14:16:37;0.00;;;0.00;;
59922;SDS011;45778;51.142;3.732;2023-08-06T14:19:03;14.40;;;1.08;;
59922;SDS011;45778;51.142;3.732;2023-08-06T14:21:29;0.10;;;0.10;;
59922;SDS011;45778;51.142;3.732;2023-08-06T14:23:54;0.20;;;0.20;;
59922;SDS011;45778;51.142;3.732;2023-08-06T14:26:20;3.28;;;1.00;;
59922;SDS011;45778;51.142;3.732;2023-08-06T14:28:46;10.65;;;2.38;;
59922;SDS011;45778;51.142;3.732;2023-08-06T14:31:11;7.13;;;1.77;;
59922;SDS011;45778;51.142;3.732;2023-08-06T14:33:37;4.68;;;1.13;;
59922;SDS011;45778;51.142;3.732;2023-08-06T14:36:03;9.35;;;1.50;;
59922;SDS011;45778;51.142;3.732;2023-08-06T14:38:29;5.95;;;1.35;;
59922;SDS011;45778;51.142;3.732;2023-08-06T14:40:54;8.57;;;1.48;;
59922;SDS011;45778;51.142;3.732;2023-08-06T14:43:20;4.63;;;1.20;;
59922;SDS011;45778;51.142;3.732;2023-08-06T14:45:46;7.22;;;1.63;;
59922;SDS011;45778;51.142;3.732;2023-08-06T14:48:12;9.45;;;2.03;;
59922;SDS011;45778;51.142;3.732;2023-08-06T14:50:37;8.27;;;1.65;;